sensor_id;sensor_type;location;lat;lon;timestamp;P1;durP1;ratioP1;P2;durP2;ratioP2
11709;SDS011;5911;51.036;6.972;2022-12-07T00:01:05;18.50;;;15.70;;
11709;SDS011;5911;51.036;6.972;2022-12-07T00:03:34;19.10;;;14.77;;
11709;SDS011;5911;51.036;6.972;2022-12-07T00:06:02;19.67;;;15.17;;
11709;SDS011;5911;51.036;6.972;2022-12-07T00:08:31;20.97;;;15.57;;
11709;SDS011;5911;51.036;6.972;2022-12-07T00:11:01;20.27;;;15.13;;
11709;SDS011;5911;51.036;6.972;2022-12-07T00:13:30;20.97;;;15.53;;
11709;SDS011;5911;51.036;6.972;2022-12-07T00:15:59;18.80;;;15.77;;
11709;SDS011;5911;51.036;6.972;2022-12-07T00:18:30;21.60;;;16.17;;
11709;SDS011;5911;51.036;6.972;2022-12-07T00:20:59;24.87;;;17.00;;
11709;SDS011;5911;51.036;6.972;2022-12-07T00:23:27;21.43;;;17.03;;
11709;SDS011;5911;51.036;6.972;2022-12-07T00:25:56;19.57;;;16.07;;
11709;SDS011;5911;51.036;6.972;2022-12-07T00:28:30;23.97;;;17.03;;
11709;SDS011;5911;51.036;6.972;2022-12-07T00:30:59;22.33;;;16.33;;
11709;SDS011;5911;51.036;6.972;2022-12-07T00:33:29;21.00;;;17.23;;
11709;SDS011;5911;51.036;6.972;2022-12-07T00:35:57;18.90;;;16.63;;
11709;SDS011;5911;51.036;6.972;2022-12-07T00:38:27;23.67;;;16.87;;
11709;SDS011;5911;51.036;6.972;2022-12-07T00:40:56;20.27;;;16.37;;
11709;SDS011;5911;51.036;6.972;2022-12-07T00:43:24;21.23;;;16.27;;
11709;SDS011;5911;51.036;6.972;2022-12-07T00:45:52;18.03;;;15.87;;
11709;SDS011;5911;51.036;6.972;2022-12-07T00:48:21;20.17;;;15.73;;
11709;SDS011;5911;51.036;6.972;2022-12-07T00:50:50;19.80;;;16.10;;
11709;SDS011;5911;51.036;6.972;2022-12-07T00:53:18;22.00;;;15.70;;
11709;SDS011;5911;51.036;6.972;2022-12-07T00:55:46;19.97;;;16.10;;
11709;SDS011;5911;51.036;6.972;2022-12-07T00:58:14;19.40;;;15.10;;
11709;SDS011;5911;51.036;6.972;2022-12-07T01:00:42;19.60;;;15.47;;
11709;SDS011;5911;51.036;6.972;2022-12-07T01:03:11;18.93;;;16.20;;
11709;SDS011;5911;51.036;6.972;2022-12-07T01:05:48;21.67;;;16.37;;
11709;SDS011;5911;51.036;6.972;2022-12-07T01:08:18;21.93;;;15.57;;
11709;SDS011;5911;51.036;6.972;2022-12-07T01:10:46;18.37;;;15.50;;
11709;SDS011;5911;51.036;6.972;2022-12-07T01:13:14;21.33;;;15.70;;
11709;SDS011;5911;51.036;6.972;2022-12-07T01:15:42;21.13;;;15.40;;
11709;SDS011;5911;51.036;6.972;2022-12-07T01:18:11;19.03;;;15.27;;
11709;SDS011;5911;51.036;6.972;2022-12-07T01:20:39;20.50;;;15.50;;
11709;SDS011;5911;51.036;6.972;2022-12-07T01:23:07;20.33;;;16.10;;
11709;SDS011;5911;51.036;6.972;2022-12-07T01:25:36;21.23;;;16.67;;
11709;SDS011;5911;51.036;6.972;2022-12-07T01:28:04;21.53;;;16.37;;
11709;SDS011;5911;51.036;6.972;2022-12-07T01:30:32;20.83;;;16.63;;
11709;SDS011;5911;51.036;6.972;2022-12-07T01:33:00;19.17;;;16.90;;
11709;SDS011;5911;51.036;6.972;2022-12-07T01:35:27;21.70;;;17.23;;
11709;SDS011;5911;51.036;6.972;2022-12-07T01:37:55;19.47;;;17.20;;
11709;SDS011;5911;51.036;6.972;2022-12-07T01:40:23;21.10;;;17.63;;
11709;SDS011;5911;51.036;6.972;2022-12-07T01:42:52;22.47;;;18.00;;
11709;SDS011;5911;51.036;6.972;2022-12-07T01:45:36;28.43;;;18.27;;
11709;SDS011;5911;51.036;6.972;2022-12-07T01:48:06;25.30;;;18.80;;
11709;SDS011;5911;51.036;6.972;2022-12-07T01:50:37;23.80;;;18.60;;
11709;SDS011;5911;51.036;6.972;2022-12-07T01:53:07;24.27;;;18.30;;
11709;SDS011;5911;51.036;6.972;2022-12-07T01:55:39;25.47;;;19.50;;
11709;SDS011;5911;51.036;6.972;2022-12-07T01:58:11;21.93;;;18.13;;
11709;SDS011;5911;51.036;6.972;2022-12-07T02:00:40;23.33;;;19.00;;
11709;SDS011;5911;51.036;6.972;2022-12-07T02:03:09;23.57;;;18.73;;
11709;SDS011;5911;51.036;6.972;2022-12-07T02:05:42;23.67;;;19.20;;
11709;SDS011;5911;51.036;6.972;2022-12-07T02:08:11;23.03;;;18.87;;
11709;SDS011;5911;51.036;6.972;2022-12-07T02:10:40;24.60;;;18.77;;
11709;SDS011;5911;51.036;6.972;2022-12-07T02:13:09;24.77;;;19.80;;
11709;SDS011;5911;51.036;6.972;2022-12-07T02:15:52;24.47;;;18.83;;
11709;SDS011;5911;51.036;6.972;2022-12-07T02:18:34;20.67;;;18.27;;
11709;SDS011;5911;51.036;6.972;2022-12-07T02:21:12;23.03;;;18.93;;
11709;SDS011;5911;51.036;6.972;2022-12-07T02:23:59;25.60;;;19.40;;
11709;SDS011;5911;51.036;6.972;2022-12-07T02:29:44;26.17;;;19.67;;
11709;SDS011;5911;51.036;6.972;2022-12-07T02:32:18;24.97;;;20.13;;
11709;SDS011;5911;51.036;6.972;2022-12-07T02:34:51;25.33;;;19.87;;
11709;SDS011;5911;51.036;6.972;2022-12-07T02:37:28;26.57;;;20.27;;
11709;SDS011;5911;51.036;6.972;2022-12-07T02:40:04;27.13;;;21.43;;
11709;SDS011;5911;51.036;6.972;2022-12-07T02:42:36;23.53;;;19.43;;
11709;SDS011;5911;51.036;6.972;2022-12-07T02:45:10;26.77;;;20.23;;
11709;SDS011;5911;51.036;6.972;2022-12-07T02:47:41;24.63;;;19.90;;
11709;SDS011;5911;51.036;6.972;2022-12-07T02:50:10;25.60;;;20.20;;
11709;SDS011;5911;51.036;6.972;2022-12-07T02:52:38;26.50;;;20.33;;
11709;SDS011;5911;51.036;6.972;2022-12-07T02:55:06;26.07;;;19.50;;
11709;SDS011;5911;51.036;6.972;2022-12-07T02:57:42;25.83;;;20.43;;
11709;SDS011;5911;51.036;6.972;2022-12-07T03:00:21;26.23;;;21.63;;
11709;SDS011;5911;51.036;6.972;2022-12-07T03:02:53;27.30;;;20.27;;
11709;SDS011;5911;51.036;6.972;2022-12-07T03:05:29;23.57;;;19.63;;
11709;SDS011;5911;51.036;6.972;2022-12-07T03:08:12;25.83;;;20.70;;
11709;SDS011;5911;51.036;6.972;2022-12-07T03:10:46;27.40;;;21.47;;
11709;SDS011;5911;51.036;6.972;2022-12-07T03:13:22;25.43;;;19.97;;
11709;SDS011;5911;51.036;6.972;2022-12-07T03:15:57;25.53;;;20.73;;
11709;SDS011;5911;51.036;6.972;2022-12-07T03:18:31;26.13;;;21.37;;
11709;SDS011;5911;51.036;6.972;2022-12-07T03:21:04;26.50;;;20.97;;
11709;SDS011;5911;51.036;6.972;2022-12-07T03:23:37;26.03;;;21.17;;
11709;SDS011;5911;51.036;6.972;2022-12-07T03:26:08;27.00;;;21.43;;
11709;SDS011;5911;51.036;6.972;2022-12-07T03:28:40;25.23;;;20.77;;
11709;SDS011;5911;51.036;6.972;2022-12-07T03:31:13;26.17;;;20.90;;
11709;SDS011;5911;51.036;6.972;2022-12-07T03:33:46;23.67;;;19.63;;
11709;SDS011;5911;51.036;6.972;2022-12-07T03:36:20;27.60;;;21.50;;
11709;SDS011;5911;51.036;6.972;2022-12-07T03:38:54;27.27;;;21.00;;
11709;SDS011;5911;51.036;6.972;2022-12-07T03:41:28;23.90;;;20.37;;
11709;SDS011;5911;51.036;6.972;2022-12-07T03:43:58;25.47;;;21.00;;
11709;SDS011;5911;51.036;6.972;2022-12-07T03:46:29;27.10;;;21.67;;
11709;SDS011;5911;51.036;6.972;2022-12-07T03:49:05;25.00;;;20.40;;
11709;SDS011;5911;51.036;6.972;2022-12-07T03:51:40;28.70;;;20.73;;
11709;SDS011;5911;51.036;6.972;2022-12-07T03:54:14;26.70;;;21.30;;
11709;SDS011;5911;51.036;6.972;2022-12-07T03:56:46;27.87;;;20.33;;
11709;SDS011;5911;51.036;6.972;2022-12-07T03:59:16;24.10;;;20.80;;
11709;SDS011;5911;51.036;6.972;2022-12-07T04:01:51;25.47;;;20.80;;
11709;SDS011;5911;51.036;6.972;2022-12-07T04:04:20;28.13;;;21.43;;
11709;SDS011;5911;51.036;6.972;2022-12-07T04:06:48;25.73;;;20.87;;
11709;SDS011;5911;51.036;6.972;2022-12-07T04:09:16;27.27;;;22.57;;
11709;SDS011;5911;51.036;6.972;2022-12-07T04:11:44;29.37;;;21.50;;
11709;SDS011;5911;51.036;6.972;2022-12-07T04:14:12;26.67;;;21.93;;
11709;SDS011;5911;51.036;6.972;2022-12-07T04:16:47;27.30;;;20.43;;
11709;SDS011;5911;51.036;6.972;2022-12-07T04:19:17;30.97;;;22.97;;
11709;SDS011;5911;51.036;6.972;2022-12-07T04:21:46;27.17;;;22.37;;
11709;SDS011;5911;51.036;6.972;2022-12-07T04:24:14;28.07;;;21.37;;
11709;SDS011;5911;51.036;6.972;2022-12-07T04:26:43;28.83;;;21.40;;
11709;SDS011;5911;51.036;6.972;2022-12-07T04:29:11;28.63;;;22.67;;
11709;SDS011;5911;51.036;6.972;2022-12-07T04:31:40;27.63;;;21.70;;
11709;SDS011;5911;51.036;6.972;2022-12-07T04:34:09;27.97;;;22.57;;
11709;SDS011;5911;51.036;6.972;2022-12-07T04:36:38;28.07;;;22.10;;
11709;SDS011;5911;51.036;6.972;2022-12-07T04:39:07;27.40;;;21.60;;
11709;SDS011;5911;51.036;6.972;2022-12-07T04:41:36;27.87;;;20.90;;
11709;SDS011;5911;51.036;6.972;2022-12-07T04:44:03;29.40;;;22.23;;
11709;SDS011;5911;51.036;6.972;2022-12-07T04:46:33;28.43;;;22.10;;
11709;SDS011;5911;51.036;6.972;2022-12-07T04:49:01;28.60;;;21.63;;
11709;SDS011;5911;51.036;6.972;2022-12-07T04:51:30;24.10;;;20.63;;
11709;SDS011;5911;51.036;6.972;2022-12-07T04:53:58;24.87;;;20.67;;
11709;SDS011;5911;51.036;6.972;2022-12-07T04:56:26;24.00;;;20.80;;
11709;SDS011;5911;51.036;6.972;2022-12-07T04:58:53;26.83;;;21.07;;
11709;SDS011;5911;51.036;6.972;2022-12-07T05:01:22;25.50;;;20.57;;
11709;SDS011;5911;51.036;6.972;2022-12-07T05:03:50;24.90;;;19.23;;
11709;SDS011;5911;51.036;6.972;2022-12-07T05:06:18;25.83;;;19.83;;
11709;SDS011;5911;51.036;6.972;2022-12-07T05:08:47;27.83;;;20.40;;
11709;SDS011;5911;51.036;6.972;2022-12-07T05:11:15;25.80;;;19.53;;
11709;SDS011;5911;51.036;6.972;2022-12-07T05:13:57;23.10;;;18.67;;
11709;SDS011;5911;51.036;6.972;2022-12-07T05:16:25;25.73;;;19.93;;
11709;SDS011;5911;51.036;6.972;2022-12-07T05:18:53;25.80;;;19.17;;
11709;SDS011;5911;51.036;6.972;2022-12-07T05:21:21;26.43;;;21.27;;
11709;SDS011;5911;51.036;6.972;2022-12-07T05:23:50;26.03;;;20.63;;
11709;SDS011;5911;51.036;6.972;2022-12-07T05:26:18;29.80;;;21.23;;
11709;SDS011;5911;51.036;6.972;2022-12-07T05:28:49;25.17;;;20.00;;
11709;SDS011;5911;51.036;6.972;2022-12-07T05:31:18;25.40;;;20.53;;
11709;SDS011;5911;51.036;6.972;2022-12-07T05:33:46;25.80;;;20.00;;
11709;SDS011;5911;51.036;6.972;2022-12-07T05:36:14;25.83;;;20.07;;
11709;SDS011;5911;51.036;6.972;2022-12-07T05:38:42;34.97;;;21.70;;
11709;SDS011;5911;51.036;6.972;2022-12-07T05:41:12;25.73;;;20.33;;
11709;SDS011;5911;51.036;6.972;2022-12-07T05:43:56;27.00;;;20.63;;
11709;SDS011;5911;51.036;6.972;2022-12-07T05:46:24;30.73;;;20.97;;
11709;SDS011;5911;51.036;6.972;2022-12-07T05:48:51;28.07;;;19.83;;
11709;SDS011;5911;51.036;6.972;2022-12-07T05:51:19;23.13;;;19.20;;
11709;SDS011;5911;51.036;6.972;2022-12-07T05:53:47;22.70;;;18.57;;
11709;SDS011;5911;51.036;6.972;2022-12-07T05:56:16;22.73;;;19.57;;
11709;SDS011;5911;51.036;6.972;2022-12-07T05:58:44;25.67;;;18.80;;
11709;SDS011;5911;51.036;6.972;2022-12-07T06:01:30;22.63;;;18.57;;
11709;SDS011;5911;51.036;6.972;2022-12-07T06:03:58;26.50;;;18.40;;
11709;SDS011;5911;51.036;6.972;2022-12-07T06:06:25;21.23;;;17.47;;
11709;SDS011;5911;51.036;6.972;2022-12-07T06:08:53;23.13;;;17.97;;
11709;SDS011;5911;51.036;6.972;2022-12-07T06:11:22;24.43;;;18.47;;
11709;SDS011;5911;51.036;6.972;2022-12-07T06:14:07;21.30;;;17.93;;
11709;SDS011;5911;51.036;6.972;2022-12-07T06:16:35;21.00;;;17.20;;
11709;SDS011;5911;51.036;6.972;2022-12-07T06:19:03;25.03;;;17.10;;
11709;SDS011;5911;51.036;6.972;2022-12-07T06:21:31;20.10;;;16.20;;
11709;SDS011;5911;51.036;6.972;2022-12-07T06:23:59;20.33;;;16.73;;
11709;SDS011;5911;51.036;6.972;2022-12-07T06:26:28;22.10;;;16.67;;
11709;SDS011;5911;51.036;6.972;2022-12-07T06:28:56;19.87;;;16.33;;
11709;SDS011;5911;51.036;6.972;2022-12-07T06:31:23;20.13;;;15.83;;
11709;SDS011;5911;51.036;6.972;2022-12-07T06:33:51;23.43;;;15.33;;
11709;SDS011;5911;51.036;6.972;2022-12-07T06:36:24;17.93;;;15.13;;
11709;SDS011;5911;51.036;6.972;2022-12-07T06:38:53;18.47;;;15.67;;
11709;SDS011;5911;51.036;6.972;2022-12-07T06:41:21;21.30;;;15.97;;
11709;SDS011;5911;51.036;6.972;2022-12-07T06:43:50;18.20;;;14.57;;
11709;SDS011;5911;51.036;6.972;2022-12-07T06:46:22;20.40;;;16.80;;
11709;SDS011;5911;51.036;6.972;2022-12-07T06:48:50;21.80;;;16.23;;
11709;SDS011;5911;51.036;6.972;2022-12-07T06:51:18;18.60;;;16.50;;
11709;SDS011;5911;51.036;6.972;2022-12-07T06:53:45;18.77;;;16.07;;
11709;SDS011;5911;51.036;6.972;2022-12-07T06:56:13;21.40;;;15.90;;
11709;SDS011;5911;51.036;6.972;2022-12-07T06:58:41;20.37;;;15.37;;
11709;SDS011;5911;51.036;6.972;2022-12-07T07:01:11;19.07;;;16.20;;
11709;SDS011;5911;51.036;6.972;2022-12-07T07:03:40;23.30;;;16.27;;
11709;SDS011;5911;51.036;6.972;2022-12-07T07:06:08;22.53;;;17.40;;
11709;SDS011;5911;51.036;6.972;2022-12-07T07:08:36;21.47;;;16.73;;
11709;SDS011;5911;51.036;6.972;2022-12-07T07:11:05;22.60;;;17.10;;
11709;SDS011;5911;51.036;6.972;2022-12-07T07:13:34;22.10;;;16.80;;
11709;SDS011;5911;51.036;6.972;2022-12-07T07:16:02;21.43;;;16.07;;
11709;SDS011;5911;51.036;6.972;2022-12-07T07:18:31;18.47;;;15.93;;
11709;SDS011;5911;51.036;6.972;2022-12-07T07:20:59;27.27;;;16.73;;
11709;SDS011;5911;51.036;6.972;2022-12-07T07:23:27;20.70;;;16.80;;
11709;SDS011;5911;51.036;6.972;2022-12-07T07:25:55;19.80;;;15.70;;
11709;SDS011;5911;51.036;6.972;2022-12-07T07:28:23;18.07;;;15.37;;
11709;SDS011;5911;51.036;6.972;2022-12-07T07:30:51;19.10;;;15.37;;
11709;SDS011;5911;51.036;6.972;2022-12-07T07:33:19;19.67;;;15.57;;
11709;SDS011;5911;51.036;6.972;2022-12-07T07:35:48;18.67;;;15.23;;
11709;SDS011;5911;51.036;6.972;2022-12-07T07:38:15;20.77;;;15.40;;
11709;SDS011;5911;51.036;6.972;2022-12-07T07:40:43;19.23;;;15.83;;
11709;SDS011;5911;51.036;6.972;2022-12-07T07:43:11;21.50;;;15.77;;
11709;SDS011;5911;51.036;6.972;2022-12-07T07:45:39;18.50;;;15.30;;
11709;SDS011;5911;51.036;6.972;2022-12-07T07:48:07;19.20;;;15.53;;
11709;SDS011;5911;51.036;6.972;2022-12-07T07:50:34;20.87;;;14.97;;
11709;SDS011;5911;51.036;6.972;2022-12-07T07:53:03;24.40;;;15.60;;
11709;SDS011;5911;51.036;6.972;2022-12-07T07:55:31;20.53;;;14.83;;
11709;SDS011;5911;51.036;6.972;2022-12-07T07:57:59;19.17;;;14.90;;
11709;SDS011;5911;51.036;6.972;2022-12-07T08:00:27;19.60;;;14.87;;
11709;SDS011;5911;51.036;6.972;2022-12-07T08:02:54;18.97;;;15.03;;
11709;SDS011;5911;51.036;6.972;2022-12-07T08:05:22;21.53;;;14.47;;
11709;SDS011;5911;51.036;6.972;2022-12-07T08:07:50;18.37;;;15.07;;
11709;SDS011;5911;51.036;6.972;2022-12-07T08:10:19;19.63;;;15.30;;
11709;SDS011;5911;51.036;6.972;2022-12-07T08:12:47;21.00;;;15.87;;
11709;SDS011;5911;51.036;6.972;2022-12-07T08:15:32;22.03;;;17.13;;
11709;SDS011;5911;51.036;6.972;2022-12-07T08:18:00;18.40;;;15.60;;
11709;SDS011;5911;51.036;6.972;2022-12-07T08:20:29;20.03;;;15.67;;
11709;SDS011;5911;51.036;6.972;2022-12-07T08:22:58;20.17;;;16.73;;
11709;SDS011;5911;51.036;6.972;2022-12-07T08:25:27;20.83;;;16.53;;
11709;SDS011;5911;51.036;6.972;2022-12-07T08:27:55;19.23;;;15.97;;
11709;SDS011;5911;51.036;6.972;2022-12-07T08:30:23;26.13;;;15.27;;
11709;SDS011;5911;51.036;6.972;2022-12-07T08:32:51;20.93;;;15.57;;
11709;SDS011;5911;51.036;6.972;2022-12-07T08:35:19;21.67;;;15.83;;
11709;SDS011;5911;51.036;6.972;2022-12-07T08:37:47;17.63;;;14.60;;
11709;SDS011;5911;51.036;6.972;2022-12-07T08:40:15;19.53;;;16.23;;
11709;SDS011;5911;51.036;6.972;2022-12-07T08:42:49;18.40;;;15.73;;
11709;SDS011;5911;51.036;6.972;2022-12-07T08:45:17;21.00;;;16.90;;
11709;SDS011;5911;51.036;6.972;2022-12-07T08:47:53;20.63;;;16.77;;
11709;SDS011;5911;51.036;6.972;2022-12-07T08:50:24;24.50;;;16.37;;
11709;SDS011;5911;51.036;6.972;2022-12-07T08:52:52;22.43;;;16.83;;
11709;SDS011;5911;51.036;6.972;2022-12-07T08:55:24;17.10;;;14.60;;
11709;SDS011;5911;51.036;6.972;2022-12-07T08:57:53;21.73;;;14.83;;
11709;SDS011;5911;51.036;6.972;2022-12-07T09:00:22;17.40;;;15.33;;
11709;SDS011;5911;51.036;6.972;2022-12-07T09:02:50;19.67;;;14.27;;
11709;SDS011;5911;51.036;6.972;2022-12-07T09:05:17;21.50;;;15.13;;
11709;SDS011;5911;51.036;6.972;2022-12-07T09:07:46;20.37;;;14.87;;
11709;SDS011;5911;51.036;6.972;2022-12-07T09:10:18;21.90;;;15.17;;
11709;SDS011;5911;51.036;6.972;2022-12-07T09:12:46;18.80;;;14.43;;
11709;SDS011;5911;51.036;6.972;2022-12-07T09:15:15;17.07;;;14.07;;
11709;SDS011;5911;51.036;6.972;2022-12-07T09:17:43;20.03;;;15.40;;
11709;SDS011;5911;51.036;6.972;2022-12-07T09:20:11;15.37;;;13.47;;
11709;SDS011;5911;51.036;6.972;2022-12-07T09:22:39;16.10;;;13.07;;
11709;SDS011;5911;51.036;6.972;2022-12-07T09:25:07;15.90;;;12.37;;
11709;SDS011;5911;51.036;6.972;2022-12-07T09:27:35;17.90;;;13.63;;
11709;SDS011;5911;51.036;6.972;2022-12-07T09:30:03;17.73;;;14.27;;
11709;SDS011;5911;51.036;6.972;2022-12-07T09:32:33;19.90;;;13.53;;
11709;SDS011;5911;51.036;6.972;2022-12-07T09:35:01;18.93;;;13.20;;
11709;SDS011;5911;51.036;6.972;2022-12-07T09:37:28;15.23;;;13.33;;
11709;SDS011;5911;51.036;6.972;2022-12-07T09:39:58;16.77;;;14.90;;
11709;SDS011;5911;51.036;6.972;2022-12-07T09:42:27;18.33;;;13.50;;
11709;SDS011;5911;51.036;6.972;2022-12-07T09:44:57;20.20;;;14.03;;
11709;SDS011;5911;51.036;6.972;2022-12-07T09:47:26;19.43;;;13.13;;
11709;SDS011;5911;51.036;6.972;2022-12-07T09:49:58;17.43;;;13.90;;
11709;SDS011;5911;51.036;6.972;2022-12-07T09:52:30;18.20;;;13.70;;
11709;SDS011;5911;51.036;6.972;2022-12-07T09:55:08;14.53;;;12.67;;
11709;SDS011;5911;51.036;6.972;2022-12-07T09:57:39;14.90;;;12.40;;
11709;SDS011;5911;51.036;6.972;2022-12-07T10:00:10;15.93;;;13.40;;
11709;SDS011;5911;51.036;6.972;2022-12-07T10:02:42;20.07;;;12.53;;
11709;SDS011;5911;51.036;6.972;2022-12-07T10:05:14;18.10;;;12.30;;
11709;SDS011;5911;51.036;6.972;2022-12-07T10:07:50;16.67;;;11.57;;
11709;SDS011;5911;51.036;6.972;2022-12-07T10:10:18;15.70;;;12.93;;
11709;SDS011;5911;51.036;6.972;2022-12-07T10:12:55;17.40;;;11.77;;
11709;SDS011;5911;51.036;6.972;2022-12-07T10:15:42;14.20;;;10.40;;
11709;SDS011;5911;51.036;6.972;2022-12-07T10:18:16;18.20;;;10.47;;
11709;SDS011;5911;51.036;6.972;2022-12-07T10:20:47;14.23;;;10.50;;
11709;SDS011;5911;51.036;6.972;2022-12-07T10:23:16;13.57;;;9.73;;
11709;SDS011;5911;51.036;6.972;2022-12-07T10:25:45;15.37;;;10.27;;
11709;SDS011;5911;51.036;6.972;2022-12-07T10:28:15;15.60;;;9.83;;
11709;SDS011;5911;51.036;6.972;2022-12-07T10:30:49;14.07;;;8.77;;
11709;SDS011;5911;51.036;6.972;2022-12-07T10:33:28;15.17;;;9.60;;
11709;SDS011;5911;51.036;6.972;2022-12-07T10:36:17;16.33;;;9.40;;
11709;SDS011;5911;51.036;6.972;2022-12-07T10:38:47;12.47;;;8.67;;
11709;SDS011;5911;51.036;6.972;2022-12-07T10:41:17;15.03;;;9.10;;
11709;SDS011;5911;51.036;6.972;2022-12-07T10:43:52;18.03;;;9.07;;
11709;SDS011;5911;51.036;6.972;2022-12-07T10:46:39;12.97;;;8.17;;
11709;SDS011;5911;51.036;6.972;2022-12-07T10:52:20;14.80;;;8.40;;
11709;SDS011;5911;51.036;6.972;2022-12-07T10:55:02;13.73;;;8.10;;
11709;SDS011;5911;51.036;6.972;2022-12-07T10:57:45;11.47;;;7.43;;
11709;SDS011;5911;51.036;6.972;2022-12-07T11:00:19;11.67;;;7.60;;
11709;SDS011;5911;51.036;6.972;2022-12-07T11:05:45;12.70;;;8.13;;
11709;SDS011;5911;51.036;6.972;2022-12-07T11:08:27;9.10;;;6.87;;
11709;SDS011;5911;51.036;6.972;2022-12-07T11:11:08;10.13;;;7.03;;
11709;SDS011;5911;51.036;6.972;2022-12-07T11:13:41;13.77;;;7.43;;
11709;SDS011;5911;51.036;6.972;2022-12-07T11:16:22;11.07;;;7.70;;
11709;SDS011;5911;51.036;6.972;2022-12-07T11:19:19;14.33;;;7.87;;
11709;SDS011;5911;51.036;6.972;2022-12-07T11:21:56;14.13;;;6.77;;
11709;SDS011;5911;51.036;6.972;2022-12-07T11:24:29;13.53;;;8.63;;
11709;SDS011;5911;51.036;6.972;2022-12-07T11:27:06;10.27;;;6.97;;
11709;SDS011;5911;51.036;6.972;2022-12-07T11:29:54;19.07;;;7.67;;
11709;SDS011;5911;51.036;6.972;2022-12-07T11:32:36;12.97;;;8.00;;
11709;SDS011;5911;51.036;6.972;2022-12-07T11:35:19;12.17;;;7.93;;
11709;SDS011;5911;51.036;6.972;2022-12-07T11:37:59;10.47;;;7.63;;
11709;SDS011;5911;51.036;6.972;2022-12-07T11:40:36;13.43;;;8.47;;
11709;SDS011;5911;51.036;6.972;2022-12-07T11:43:09;13.53;;;8.87;;
11709;SDS011;5911;51.036;6.972;2022-12-07T11:45:44;13.77;;;8.33;;
11709;SDS011;5911;51.036;6.972;2022-12-07T11:48:19;17.03;;;8.60;;
11709;SDS011;5911;51.036;6.972;2022-12-07T11:50:56;13.27;;;8.43;;
11709;SDS011;5911;51.036;6.972;2022-12-07T11:53:27;10.23;;;7.40;;
11709;SDS011;5911;51.036;6.972;2022-12-07T11:56:03;12.70;;;7.40;;
11709;SDS011;5911;51.036;6.972;2022-12-07T11:58:38;11.93;;;7.90;;
11709;SDS011;5911;51.036;6.972;2022-12-07T12:04:07;10.13;;;7.00;;
11709;SDS011;5911;51.036;6.972;2022-12-07T12:06:50;12.53;;;7.10;;
11709;SDS011;5911;51.036;6.972;2022-12-07T12:09:21;11.73;;;8.07;;
11709;SDS011;5911;51.036;6.972;2022-12-07T12:12:19;13.73;;;8.80;;
11709;SDS011;5911;51.036;6.972;2022-12-07T12:15:24;13.50;;;9.10;;
11709;SDS011;5911;51.036;6.972;2022-12-07T12:18:05;11.90;;;8.53;;
11709;SDS011;5911;51.036;6.972;2022-12-07T12:20:47;9.90;;;8.63;;
11709;SDS011;5911;51.036;6.972;2022-12-07T12:23:18;13.87;;;8.23;;
11709;SDS011;5911;51.036;6.972;2022-12-07T12:25:50;16.77;;;9.43;;
11709;SDS011;5911;51.036;6.972;2022-12-07T12:28:23;15.40;;;8.37;;
11709;SDS011;5911;51.036;6.972;2022-12-07T12:31:04;12.23;;;9.37;;
11709;SDS011;5911;51.036;6.972;2022-12-07T12:33:34;15.33;;;9.73;;
11709;SDS011;5911;51.036;6.972;2022-12-07T12:36:17;14.50;;;10.20;;
11709;SDS011;5911;51.036;6.972;2022-12-07T12:38:47;15.03;;;8.60;;
11709;SDS011;5911;51.036;6.972;2022-12-07T12:44:40;13.77;;;7.90;;
11709;SDS011;5911;51.036;6.972;2022-12-07T12:47:40;12.73;;;7.80;;
11709;SDS011;5911;51.036;6.972;2022-12-07T12:50:20;12.90;;;8.37;;
11709;SDS011;5911;51.036;6.972;2022-12-07T12:53:03;13.00;;;8.80;;
11709;SDS011;5911;51.036;6.972;2022-12-07T12:58:47;12.93;;;9.30;;
11709;SDS011;5911;51.036;6.972;2022-12-07T13:04:16;13.43;;;8.87;;
11709;SDS011;5911;51.036;6.972;2022-12-07T13:06:53;12.47;;;9.00;;
11709;SDS011;5911;51.036;6.972;2022-12-07T13:09:22;13.87;;;9.07;;
11709;SDS011;5911;51.036;6.972;2022-12-07T13:11:56;14.30;;;9.07;;
11709;SDS011;5911;51.036;6.972;2022-12-07T13:14:51;14.03;;;9.17;;
11709;SDS011;5911;51.036;6.972;2022-12-07T13:20:50;13.40;;;7.53;;
11709;SDS011;5911;51.036;6.972;2022-12-07T13:23:21;15.83;;;6.87;;
11709;SDS011;5911;51.036;6.972;2022-12-07T13:25:56;13.30;;;7.53;;
11709;SDS011;5911;51.036;6.972;2022-12-07T13:28:43;13.23;;;6.63;;
11709;SDS011;5911;51.036;6.972;2022-12-07T13:31:14;10.17;;;6.97;;
11709;SDS011;5911;51.036;6.972;2022-12-07T13:33:48;11.40;;;6.27;;
11709;SDS011;5911;51.036;6.972;2022-12-07T13:36:18;12.73;;;7.40;;
11709;SDS011;5911;51.036;6.972;2022-12-07T13:38:50;11.50;;;6.50;;
11709;SDS011;5911;51.036;6.972;2022-12-07T13:41:20;13.90;;;7.27;;
11709;SDS011;5911;51.036;6.972;2022-12-07T13:43:50;14.60;;;7.50;;
11709;SDS011;5911;51.036;6.972;2022-12-07T13:46:24;10.90;;;6.33;;
11709;SDS011;5911;51.036;6.972;2022-12-07T13:48:59;10.30;;;6.03;;
11709;SDS011;5911;51.036;6.972;2022-12-07T13:51:27;8.63;;;6.00;;
11709;SDS011;5911;51.036;6.972;2022-12-07T13:53:59;9.87;;;6.53;;
11709;SDS011;5911;51.036;6.972;2022-12-07T13:56:31;9.90;;;6.70;;
11709;SDS011;5911;51.036;6.972;2022-12-07T13:59:00;13.47;;;6.17;;
11709;SDS011;5911;51.036;6.972;2022-12-07T14:01:30;11.87;;;6.17;;
11709;SDS011;5911;51.036;6.972;2022-12-07T14:06:47;12.40;;;5.97;;
11709;SDS011;5911;51.036;6.972;2022-12-07T14:09:17;12.20;;;6.27;;
11709;SDS011;5911;51.036;6.972;2022-12-07T14:11:47;11.90;;;5.97;;
11709;SDS011;5911;51.036;6.972;2022-12-07T14:14:17;10.67;;;6.60;;
11709;SDS011;5911;51.036;6.972;2022-12-07T14:16:57;14.13;;;6.40;;
11709;SDS011;5911;51.036;6.972;2022-12-07T14:19:47;9.50;;;5.40;;
11709;SDS011;5911;51.036;6.972;2022-12-07T14:22:25;11.70;;;6.17;;
11709;SDS011;5911;51.036;6.972;2022-12-07T14:27:48;10.23;;;5.83;;
11709;SDS011;5911;51.036;6.972;2022-12-07T14:30:22;12.03;;;6.60;;
11709;SDS011;5911;51.036;6.972;2022-12-07T14:32:53;14.50;;;6.50;;
11709;SDS011;5911;51.036;6.972;2022-12-07T14:35:24;11.77;;;6.93;;
11709;SDS011;5911;51.036;6.972;2022-12-07T14:37:53;9.27;;;6.17;;
11709;SDS011;5911;51.036;6.972;2022-12-07T14:40:21;11.97;;;6.93;;
11709;SDS011;5911;51.036;6.972;2022-12-07T14:42:51;12.50;;;6.63;;
11709;SDS011;5911;51.036;6.972;2022-12-07T14:45:22;12.13;;;7.07;;
11709;SDS011;5911;51.036;6.972;2022-12-07T14:47:50;12.00;;;6.60;;
11709;SDS011;5911;51.036;6.972;2022-12-07T14:50:41;12.27;;;7.57;;
11709;SDS011;5911;51.036;6.972;2022-12-07T14:53:31;11.67;;;8.07;;
11709;SDS011;5911;51.036;6.972;2022-12-07T14:56:03;12.93;;;8.27;;
11709;SDS011;5911;51.036;6.972;2022-12-07T14:58:32;11.30;;;8.53;;
11709;SDS011;5911;51.036;6.972;2022-12-07T15:01:00;15.77;;;9.00;;
11709;SDS011;5911;51.036;6.972;2022-12-07T15:03:28;13.50;;;8.57;;
11709;SDS011;5911;51.036;6.972;2022-12-07T15:05:58;12.10;;;8.87;;
11709;SDS011;5911;51.036;6.972;2022-12-07T15:08:26;13.33;;;8.73;;
11709;SDS011;5911;51.036;6.972;2022-12-07T15:10:54;13.53;;;8.40;;
11709;SDS011;5911;51.036;6.972;2022-12-07T15:13:22;11.37;;;8.83;;
11709;SDS011;5911;51.036;6.972;2022-12-07T15:16:10;13.77;;;9.37;;
11709;SDS011;5911;51.036;6.972;2022-12-07T15:18:41;16.10;;;8.93;;
11709;SDS011;5911;51.036;6.972;2022-12-07T15:21:31;15.90;;;8.67;;
11709;SDS011;5911;51.036;6.972;2022-12-07T15:23:58;12.10;;;8.07;;
11709;SDS011;5911;51.036;6.972;2022-12-07T15:26:26;11.90;;;7.53;;
11709;SDS011;5911;51.036;6.972;2022-12-07T15:28:54;7.90;;;5.77;;
11709;SDS011;5911;51.036;6.972;2022-12-07T15:31:22;9.13;;;5.00;;
11709;SDS011;5911;51.036;6.972;2022-12-07T15:34:11;4.73;;;3.07;;
11709;SDS011;5911;51.036;6.972;2022-12-07T15:36:40;5.27;;;3.20;;